createdAt,value
2019-04-28T00:01:01.036Z,20.17
2019-04-28T00:03:31.828Z,19.60
2019-04-28T00:06:01.162Z,20.57
2019-04-28T00:08:31.826Z,18.83
2019-04-28T00:11:01.781Z,17.03
2019-04-28T00:13:32.104Z,18.40
2019-04-28T00:16:01.731Z,18.40
2019-04-28T00:18:31.712Z,20.77
2019-04-28T00:21:20.874Z,17.80
2019-04-28T00:24:01.733Z,18.40
2019-04-28T00:26:42.381Z,17.23
2019-04-28T00:29:14.331Z,17.70
2019-04-28T00:31:43.260Z,17.60
2019-04-28T00:34:12.300Z,18.90
2019-04-28T00:36:43.082Z,17.33
2019-04-28T00:39:12.250Z,18.97
2019-04-28T00:41:42.014Z,16.43
2019-04-28T00:44:11.952Z,17.53
2019-04-28T00:46:41.642Z,18.20
2019-04-28T00:49:11.840Z,19.10
2019-04-28T00:51:41.660Z,17.07
2019-04-28T00:54:12.057Z,21.83
2019-04-28T00:56:41.845Z,20.70
2019-04-28T00:59:13.119Z,21.40
2019-04-28T01:01:51.273Z,24.50
2019-04-28T01:04:21.989Z,19.73
2019-04-28T01:06:52.013Z,21.77
2019-04-28T01:09:21.765Z,19.73
2019-04-28T01:11:51.145Z,20.67
2019-04-28T01:14:21.522Z,22.27
2019-04-28T01:16:57.327Z,21.43
2019-04-28T01:19:30.167Z,23.30
2019-04-28T01:22:20.001Z,23.07
2019-04-28T01:24:49.701Z,22.53
2019-04-28T01:27:37.826Z,25.03
2019-04-28T01:30:11.781Z,24.23
2019-04-28T01:32:49.803Z,22.67
2019-04-28T01:35:20.850Z,24.67
2019-04-28T01:37:50.523Z,25.27
2019-04-28T01:40:20.493Z,24.80
2019-04-28T01:42:49.992Z,25.30
2019-04-28T01:45:20.568Z,24.00
2019-04-28T01:47:50.406Z,24.57
2019-04-28T01:50:20.470Z,22.37
2019-04-28T01:52:51.381Z,20.40
2019-04-28T01:55:20.135Z,19.57
2019-04-28T01:57:49.756Z,21.83
2019-04-28T02:00:24.976Z,22.00
2019-04-28T02:02:50.525Z,20.20
2019-04-28T02:05:19.725Z,19.20
2019-04-28T02:07:50.499Z,20.90
2019-04-28T02:10:21.527Z,19.63
2019-04-28T02:12:50.336Z,20.20
2019-04-28T02:15:20.216Z,19.77
2019-04-28T02:17:51.364Z,21.73
2019-04-28T02:20:22.972Z,20.13
2019-04-28T02:22:59.906Z,20.80
2019-04-28T02:25:29.821Z,19.27
2019-04-28T02:27:59.598Z,18.87
2019-04-28T02:30:44.137Z,22.13
2019-04-28T02:33:01.677Z,20.50
2019-04-28T02:35:31.667Z,19.77
2019-04-28T02:38:00.267Z,18.93
2019-04-28T02:40:30.598Z,20.23
2019-04-28T02:43:01.304Z,19.37
2019-04-28T02:45:31.577Z,20.50
2019-04-28T02:48:03.023Z,22.03
2019-04-28T02:50:51.167Z,20.87
2019-04-28T02:53:24.428Z,20.23
2019-04-28T02:55:53.237Z,22.33
2019-04-28T02:58:22.638Z,21.43
2019-04-28T03:01:02.729Z,21.80
2019-04-28T03:03:21.976Z,20.53
2019-04-28T03:05:51.361Z,22.43
2019-04-28T03:08:21.465Z,21.00
2019-04-28T03:10:51.041Z,19.20
2019-04-28T03:13:20.889Z,18.30
2019-04-28T03:15:51.635Z,18.50
2019-04-28T03:18:21.426Z,17.60
2019-04-28T03:20:51.469Z,18.23
2019-04-28T03:23:20.916Z,17.57
2019-04-28T03:26:01.823Z,18.23
2019-04-28T03:28:51.341Z,17.30
2019-04-28T03:32:01.395Z,18.13
2019-04-28T03:34:04.622Z,16.53
2019-04-28T03:36:36.071Z,18.07
2019-04-28T03:39:06.471Z,17.10
2019-04-28T03:41:35.416Z,17.77
2019-04-28T03:44:04.699Z,17.27
2019-04-28T03:46:36.315Z,16.90
2019-04-28T03:49:05.064Z,18.40
2019-04-28T03:51:33.940Z,17.37
2019-04-28T03:54:03.124Z,16.80
2019-04-28T03:56:32.115Z,16.97
2019-04-28T03:59:02.063Z,15.23
2019-04-28T04:01:34.393Z,16.20
2019-04-28T04:04:05.633Z,14.57
2019-04-28T04:06:36.425Z,14.27
2019-04-28T04:09:05.610Z,14.77
2019-04-28T04:11:42.452Z,13.93
2019-04-28T04:14:26.959Z,13.47
2019-04-28T04:17:14.959Z,12.80
2019-04-28T04:19:43.979Z,11.60
2019-04-28T04:22:12.968Z,11.13
2019-04-28T04:24:41.761Z,11.27
2019-04-28T04:27:10.835Z,10.40
2019-04-28T04:29:43.277Z,9.50
2019-04-28T04:32:20.529Z,8.57
2019-04-28T04:34:40.906Z,8.47
2019-04-28T04:37:13.176Z,8.60
2019-04-28T04:39:41.881Z,7.63
2019-04-28T04:42:11.850Z,7.50
2019-04-28T04:44:41.894Z,6.83
2019-04-28T04:47:10.980Z,6.20
2019-04-28T04:49:40.487Z,5.13
2019-04-28T04:52:11.367Z,5.53
2019-04-28T04:54:40.987Z,5.63
2019-04-28T04:57:32.358Z,5.50
2019-04-28T05:00:10.153Z,5.60
2019-04-28T05:02:52.000Z,5.40
2019-04-28T05:05:21.363Z,5.70
2019-04-28T05:07:50.730Z,5.60
2019-04-28T05:10:20.417Z,6.23
2019-04-28T05:12:49.904Z,6.70
2019-04-28T05:15:20.336Z,6.53
2019-04-28T05:17:50.108Z,6.67
2019-04-28T05:20:20.178Z,7.60
2019-04-28T05:23:03.341Z,6.33
2019-04-28T05:25:36.525Z,6.17
2019-04-28T05:28:05.376Z,6.60
2019-04-28T05:30:34.781Z,6.00
2019-04-28T05:33:04.860Z,5.30
2019-04-28T05:35:37.345Z,5.60
2019-04-28T05:38:12.822Z,5.27
2019-04-28T05:40:45.102Z,5.20
2019-04-28T05:43:17.255Z,5.33
2019-04-28T05:45:46.069Z,4.90
2019-04-28T05:48:16.552Z,4.90
2019-04-28T05:50:50.993Z,4.80
2019-04-28T05:53:32.634Z,4.03
2019-04-28T05:56:20.563Z,4.10
2019-04-28T05:58:56.981Z,3.27
2019-04-28T06:01:30.472Z,3.20
2019-04-28T06:04:00.886Z,3.77
2019-04-28T06:06:35.371Z,3.30
2019-04-28T06:09:20.273Z,3.57
2019-04-28T06:11:54.545Z,3.20
2019-04-28T06:14:22.828Z,3.27
2019-04-28T06:16:52.045Z,3.87
2019-04-28T06:19:21.024Z,3.63
2019-04-28T06:21:50.022Z,3.47
2019-04-28T06:24:22.480Z,3.43
2019-04-28T06:26:51.222Z,3.50
2019-04-28T06:29:20.107Z,3.20
2019-04-28T06:31:52.026Z,3.17
2019-04-28T06:34:23.734Z,3.37
2019-04-28T06:36:52.616Z,2.90
2019-04-28T06:39:22.564Z,3.63
2019-04-28T06:41:51.529Z,3.47
2019-04-28T06:44:20.298Z,3.53
2019-04-28T06:46:49.319Z,2.80
2019-04-28T06:49:21.636Z,3.00
2019-04-28T06:51:50.585Z,2.97
2019-04-28T06:54:19.325Z,3.37
2019-04-28T06:56:48.122Z,3.00
2019-04-28T06:59:16.820Z,3.30
2019-04-28T07:01:45.716Z,2.80
2019-04-28T07:04:14.580Z,2.93
2019-04-28T07:06:43.318Z,3.23
2019-04-28T07:09:12.394Z,3.40
2019-04-28T07:11:41.494Z,3.13
2019-04-28T07:14:10.175Z,3.13
2019-04-28T07:16:38.903Z,3.37
2019-04-28T07:19:08.086Z,2.80
2019-04-28T07:21:48.940Z,3.53
2019-04-28T07:24:22.556Z,3.03
2019-04-28T07:27:00.677Z,3.17
2019-04-28T07:29:29.379Z,2.83
2019-04-28T07:31:58.254Z,2.80
2019-04-28T07:34:27.158Z,3.20
2019-04-28T07:36:55.981Z,3.13
2019-04-28T07:39:24.702Z,3.27
2019-04-28T07:41:53.735Z,3.07
2019-04-28T07:44:22.495Z,3.50
2019-04-28T07:46:51.235Z,3.57
2019-04-28T07:49:19.970Z,3.47
2019-04-28T07:52:06.721Z,3.57
2019-04-28T07:54:41.012Z,3.27
2019-04-28T07:57:09.906Z,3.30
2019-04-28T07:59:48.835Z,3.87
2019-04-28T08:02:17.465Z,3.07
2019-04-28T08:04:46.261Z,2.87
2019-04-28T08:07:15.196Z,3.00
2019-04-28T08:09:44.063Z,2.90
2019-04-28T08:12:13.018Z,3.10
2019-04-28T08:14:46.097Z,3.40
2019-04-28T08:17:14.845Z,3.73
2019-04-28T08:19:44.200Z,3.63
2019-04-28T08:22:13.021Z,4.13
2019-04-28T08:24:41.799Z,4.07
2019-04-28T08:27:10.526Z,4.37
2019-04-28T08:29:39.652Z,3.33
2019-04-28T08:32:15.880Z,3.90
2019-04-28T08:34:44.968Z,4.00
2019-04-28T08:37:18.750Z,3.70
2019-04-28T08:39:47.845Z,3.30
2019-04-28T08:42:16.704Z,3.43
2019-04-28T08:44:50.066Z,3.90
2019-04-28T08:47:22.608Z,3.17
2019-04-28T08:49:52.104Z,3.27
2019-04-28T08:52:22.336Z,3.67
2019-04-28T08:54:51.454Z,3.80
2019-04-28T08:57:21.735Z,4.10
2019-04-28T08:59:51.344Z,3.77
2019-04-28T09:02:20.233Z,3.77
2019-04-28T09:04:50.913Z,3.87
2019-04-28T09:07:20.939Z,3.50
2019-04-28T09:09:49.794Z,3.10
2019-04-28T09:12:21.325Z,3.20
2019-04-28T09:14:52.596Z,3.43
2019-04-28T09:17:21.395Z,3.37
2019-04-28T09:19:50.999Z,3.63
2019-04-28T09:22:23.087Z,3.20
2019-04-28T09:24:52.176Z,3.17
2019-04-28T09:27:30.561Z,3.60
2019-04-28T09:29:59.538Z,3.77
2019-04-28T09:32:28.497Z,3.23
2019-04-28T09:34:57.372Z,3.23
2019-04-28T09:37:26.630Z,3.53
2019-04-28T09:40:01.868Z,3.20
2019-04-28T09:42:51.246Z,2.93
2019-04-28T09:45:23.183Z,2.43
2019-04-28T09:47:55.218Z,3.17
2019-04-28T09:50:26.153Z,3.70
2019-04-28T09:52:56.213Z,3.53
2019-04-28T09:55:26.326Z,3.67
2019-04-28T09:57:55.343Z,3.67
2019-04-28T10:00:24.515Z,3.10
2019-04-28T10:02:53.443Z,3.10
2019-04-28T10:05:22.371Z,3.17
2019-04-28T10:07:51.065Z,3.07
2019-04-28T10:10:19.918Z,2.33
2019-04-28T10:12:49.216Z,3.20
2019-04-28T10:15:18.017Z,2.23
2019-04-28T10:17:47.153Z,2.50
2019-04-28T10:20:35.583Z,2.40
2019-04-28T10:32:21.495Z,3.80
2019-04-28T10:34:55.048Z,2.73
2019-04-28T10:37:22.814Z,3.30
2019-04-28T10:43:42.793Z,3.10
2019-04-28T10:46:23.742Z,3.10
2019-04-28T10:49:11.227Z,3.83
2019-04-28T10:51:59.894Z,2.73
2019-04-28T10:54:28.941Z,3.00
2019-04-28T10:56:57.785Z,3.00
2019-04-28T10:59:26.599Z,2.90
2019-04-28T11:01:55.271Z,3.00
2019-04-28T11:04:43.142Z,3.20
2019-04-28T11:07:12.331Z,3.30
2019-04-28T11:09:44.427Z,3.10
2019-04-28T11:12:19.871Z,3.20
2019-04-28T11:14:48.670Z,2.93
2019-04-28T11:17:18.130Z,3.00
2019-04-28T11:19:46.788Z,2.07
2019-04-28T11:22:15.673Z,3.33
2019-04-28T11:24:44.396Z,2.70
2019-04-28T11:27:14.693Z,2.63
2019-04-28T11:29:43.588Z,2.80
2019-04-28T11:32:12.467Z,2.90
2019-04-28T11:35:00.310Z,2.80
2019-04-28T11:37:29.096Z,2.83
2019-04-28T11:39:57.779Z,2.97
2019-04-28T11:42:28.537Z,3.07
2019-04-28T11:44:57.289Z,2.53
2019-04-28T11:47:26.225Z,3.23
2019-04-28T11:49:55.010Z,2.90
2019-04-28T11:52:23.788Z,2.30
2019-04-28T11:54:52.908Z,2.70
2019-04-28T11:57:21.709Z,2.50
2019-04-28T11:59:50.514Z,2.50
2019-04-28T12:02:21.749Z,2.53
2019-04-28T12:04:52.159Z,2.90
2019-04-28T12:07:20.975Z,3.33
2019-04-28T12:10:08.841Z,3.63
2019-04-28T12:12:52.635Z,3.67
2019-04-28T12:15:37.633Z,3.40
2019-04-28T12:18:20.540Z,2.37
2019-04-28T12:20:50.445Z,2.23
2019-04-28T12:23:19.274Z,2.50
2019-04-28T12:25:48.158Z,2.60
2019-04-28T12:28:16.979Z,2.67
2019-04-28T12:30:45.762Z,2.80
2019-04-28T12:33:14.566Z,2.17
2019-04-28T12:35:48.125Z,2.93
2019-04-28T12:38:13.874Z,2.20
2019-04-28T12:40:42.812Z,2.73
2019-04-28T12:43:11.767Z,2.67
2019-04-28T12:45:40.513Z,2.13
2019-04-28T12:48:09.276Z,2.00
2019-04-28T12:50:45.425Z,2.57
2019-04-28T12:53:14.164Z,2.30
2019-04-28T12:55:43.070Z,2.27
2019-04-28T12:58:12.044Z,2.20
2019-04-28T13:00:49.841Z,2.47
2019-04-28T13:03:32.881Z,2.27
2019-04-28T13:06:06.777Z,2.80
2019-04-28T13:08:35.589Z,2.00
2019-04-28T13:11:08.550Z,1.90
2019-04-28T13:13:38.344Z,2.40
2019-04-28T13:16:07.192Z,2.33
2019-04-28T13:18:40.064Z,2.50
2019-04-28T13:21:08.899Z,2.50
2019-04-28T13:23:37.856Z,2.67
2019-04-28T13:26:06.585Z,2.00
2019-04-28T13:28:35.789Z,2.37
2019-04-28T13:31:07.618Z,2.67
2019-04-28T13:33:36.549Z,2.20
2019-04-28T13:36:14.718Z,2.30
2019-04-28T13:38:36.029Z,1.67
2019-04-28T13:41:04.785Z,2.20
2019-04-28T13:43:33.500Z,2.00
2019-04-28T13:46:02.330Z,2.30
2019-04-28T13:48:31.176Z,1.90
2019-04-28T13:51:00.004Z,1.63
2019-04-28T13:53:28.812Z,1.80
2019-04-28T13:56:03.232Z,1.70
2019-04-28T13:58:39.676Z,1.87
2019-04-28T14:01:27.504Z,2.20
2019-04-28T14:04:11.245Z,2.10
2019-04-28T14:06:43.511Z,2.40
2019-04-28T14:09:22.019Z,2.23
2019-04-28T14:11:54.015Z,1.90
2019-04-28T14:14:22.758Z,1.97
2019-04-28T14:16:53.991Z,2.60
2019-04-28T14:19:22.736Z,2.50
2019-04-28T14:21:51.508Z,2.47
2019-04-28T14:24:20.497Z,2.30
2019-04-28T14:26:49.334Z,2.30
2019-04-28T14:29:18.193Z,1.97
2019-04-28T14:31:47.023Z,2.83
2019-04-28T14:34:18.917Z,2.63
2019-04-28T14:36:50.785Z,2.90
2019-04-28T14:39:25.110Z,2.70
2019-04-28T14:41:55.001Z,3.10
2019-04-28T14:44:24.999Z,2.57
2019-04-28T14:46:53.961Z,2.40
2019-04-28T14:49:22.920Z,3.10
2019-04-28T14:51:51.646Z,2.97
2019-04-28T14:54:20.377Z,2.70
2019-04-28T14:56:49.335Z,2.87
2019-04-28T14:59:18.140Z,2.53
2019-04-28T15:02:04.113Z,2.63
2019-04-28T15:04:52.494Z,2.47
2019-04-28T15:07:40.463Z,3.37
2019-04-28T15:10:22.668Z,3.57
2019-04-28T15:12:52.414Z,3.80
2019-04-28T15:15:21.676Z,4.27
2019-04-28T15:17:50.428Z,3.97
2019-04-28T15:20:19.685Z,4.50
2019-04-28T15:22:48.607Z,4.00
2019-04-28T15:25:19.852Z,4.77
2019-04-28T15:27:52.394Z,5.10
2019-04-28T15:30:28.320Z,4.90
2019-04-28T15:32:57.104Z,4.00
2019-04-28T15:35:25.952Z,4.57
2019-04-28T15:37:54.937Z,4.60
2019-04-28T15:40:23.675Z,5.53
2019-04-28T15:42:52.539Z,5.43
2019-04-28T15:45:21.442Z,4.90
2019-04-28T15:47:54.369Z,5.90
2019-04-28T15:50:27.135Z,9.83
2019-04-28T15:52:55.968Z,13.33
2019-04-28T15:55:31.539Z,12.77
2019-04-28T15:58:21.124Z,12.10
2019-04-28T16:00:50.581Z,9.80
2019-04-28T16:03:19.423Z,6.80
2019-04-28T16:05:48.343Z,6.90
2019-04-28T16:08:17.266Z,5.43
2019-04-28T16:10:46.121Z,5.47
2019-04-28T16:13:15.160Z,5.33
2019-04-28T16:15:44.190Z,6.73
2019-04-28T16:18:13.081Z,5.57
2019-04-28T16:20:42.011Z,22.40
2019-04-28T16:23:11.557Z,9.27
2019-04-28T16:25:40.511Z,9.70
2019-04-28T16:28:09.376Z,6.10
2019-04-28T16:30:40.802Z,7.20
2019-04-28T16:33:10.748Z,6.53
2019-04-28T16:35:47.609Z,7.63
2019-04-28T16:38:24.361Z,8.37
2019-04-28T16:40:53.733Z,7.50
2019-04-28T16:43:22.655Z,7.63
2019-04-28T16:45:51.560Z,9.10
2019-04-28T16:48:23.105Z,8.23
2019-04-28T16:50:52.117Z,8.33
2019-04-28T16:53:27.170Z,10.10
2019-04-28T16:56:16.015Z,9.63
2019-04-28T16:58:55.644Z,11.63
2019-04-28T17:01:44.560Z,9.93
2019-04-28T17:04:13.551Z,10.63
2019-04-28T17:06:45.448Z,9.50
2019-04-28T17:09:16.195Z,9.37
2019-04-28T17:11:45.205Z,9.03
2019-04-28T17:14:14.132Z,12.57
2019-04-28T17:16:43.234Z,8.60
2019-04-28T17:19:12.253Z,10.47
2019-04-28T17:21:41.439Z,8.20
2019-04-28T17:24:13.845Z,12.47
2019-04-28T17:26:45.084Z,10.20
2019-04-28T17:29:14.102Z,9.10
2019-04-28T17:31:45.025Z,7.40
2019-04-28T17:34:14.012Z,9.73
2019-04-28T17:36:45.064Z,9.47
2019-04-28T17:39:21.591Z,8.90
2019-04-28T17:41:52.113Z,10.20
2019-04-28T17:44:28.438Z,7.30
2019-04-28T17:47:01.884Z,11.50
2019-04-28T17:52:26.756Z,11.17
2019-04-28T17:54:55.735Z,11.33
2019-04-28T17:57:24.645Z,16.97
2019-04-28T17:59:57.011Z,11.60
2019-04-28T18:02:48.776Z,9.37
2019-04-28T18:05:46.435Z,9.60
2019-04-28T18:08:21.214Z,11.17
2019-04-28T18:10:49.200Z,10.77
2019-04-28T18:13:20.682Z,8.00
2019-04-28T18:16:04.663Z,8.13
2019-04-28T18:18:45.607Z,8.10
2019-04-28T18:21:14.459Z,7.50
2019-04-28T18:38:03.700Z,7.37
2019-04-28T18:40:48.521Z,9.53
2019-04-28T18:43:22.571Z,8.27
2019-04-28T18:45:53.061Z,10.13
2019-04-28T18:48:21.953Z,9.93
2019-04-28T18:50:58.846Z,10.73
2019-04-28T18:53:47.025Z,9.60
2019-04-28T18:56:24.803Z,9.33
2019-04-28T19:05:11.415Z,10.13
2019-04-28T19:08:32.947Z,10.60
2019-04-28T19:11:27.565Z,9.80
2019-04-28T19:17:47.015Z,10.73
2019-04-28T19:20:18.998Z,11.60
2019-04-28T19:23:05.882Z,10.80
2019-04-28T19:25:35.372Z,9.63
2019-04-28T19:28:04.298Z,11.63
2019-04-28T19:30:45.623Z,10.70
2019-04-28T19:33:19.744Z,11.53
2019-04-28T19:35:53.057Z,12.23
2019-04-28T19:38:22.237Z,14.93
2019-04-28T19:40:51.535Z,15.37
2019-04-28T19:43:38.683Z,15.20
2019-04-28T19:46:16.986Z,13.20
2019-04-28T19:48:50.066Z,13.17
2019-04-28T19:51:34.579Z,14.33
2019-04-28T19:53:55.856Z,13.60
2019-04-28T19:56:33.612Z,13.53
2019-04-28T19:59:39.354Z,14.80
2019-04-28T20:02:32.022Z,12.63
2019-04-28T20:05:08.180Z,11.67
2019-04-28T20:07:56.740Z,13.77
2019-04-28T20:10:58.597Z,13.73
2019-04-28T20:13:57.707Z,12.87
2019-04-28T20:16:05.890Z,12.20
2019-04-28T20:18:37.742Z,13.10
2019-04-28T20:21:11.141Z,12.63
2019-04-28T20:23:40.073Z,11.20
2019-04-28T20:26:08.957Z,11.27
2019-04-28T20:28:42.856Z,12.10
2019-04-28T20:31:13.226Z,10.90
2019-04-28T20:33:56.077Z,11.10
2019-04-28T20:37:05.412Z,9.70
2019-04-28T20:39:39.038Z,8.30
2019-04-28T20:42:31.072Z,10.57
2019-04-28T20:44:59.958Z,9.50
2019-04-28T20:47:28.831Z,9.07
2019-04-28T20:49:57.738Z,8.60
2019-04-28T20:52:45.579Z,8.20
2019-04-28T20:55:14.596Z,9.30
2019-04-28T20:57:43.375Z,7.63
2019-04-28T21:00:15.279Z,8.40
2019-04-28T21:20:54.581Z,9.43
2019-04-28T21:23:24.733Z,8.73
2019-04-28T21:25:55.356Z,8.40
2019-04-28T21:28:27.106Z,8.33
2019-04-28T21:30:55.738Z,8.90
2019-04-28T21:33:24.479Z,9.00
2019-04-28T21:35:53.484Z,9.67
2019-04-28T21:38:22.207Z,10.87
2019-04-28T21:40:50.979Z,8.93
2019-04-28T21:43:38.780Z,9.37
2019-04-28T21:46:14.170Z,9.00
2019-04-28T21:48:52.096Z,9.13
2019-04-28T21:51:21.032Z,9.00
2019-04-28T21:53:49.854Z,9.80
2019-04-28T21:56:18.830Z,9.37
2019-04-28T21:58:47.601Z,9.20
2019-04-28T22:01:17.944Z,8.63
2019-04-28T22:03:46.948Z,10.07
2019-04-28T22:06:15.893Z,8.80
2019-04-28T22:08:44.777Z,8.33
2019-04-28T22:11:13.630Z,8.03
2019-04-28T22:13:42.491Z,7.13
2019-04-28T22:16:11.264Z,7.80
2019-04-28T22:18:40.175Z,7.30
2019-04-28T22:21:09.270Z,6.83
2019-04-28T22:23:45.900Z,7.87
2019-04-28T22:26:33.822Z,7.57
2019-04-28T22:29:02.718Z,6.83
2019-04-28T22:31:31.636Z,8.80
2019-04-28T22:34:00.524Z,8.07
2019-04-28T22:36:29.413Z,9.03
2019-04-28T22:38:58.226Z,7.80
2019-04-28T22:41:27.682Z,10.03
2019-04-28T22:43:56.436Z,9.93
2019-04-28T22:46:25.291Z,9.83
2019-04-28T22:48:55.794Z,10.40
2019-04-28T22:51:24.560Z,9.47
2019-04-28T22:53:53.351Z,10.67
2019-04-28T22:56:41.307Z,10.13
2019-04-28T22:59:14.464Z,8.60
2019-04-28T23:01:45.531Z,8.67
2019-04-28T23:04:28.352Z,10.30
2019-04-28T23:06:57.298Z,7.13
2019-04-28T23:09:26.145Z,7.67
2019-04-28T23:11:54.887Z,8.30
2019-04-28T23:14:23.833Z,8.40
2019-04-28T23:16:52.496Z,7.10
2019-04-28T23:19:23.390Z,9.17
2019-04-28T23:21:58.048Z,8.90
2019-04-28T23:24:26.821Z,7.10
2019-04-28T23:26:55.606Z,7.83
2019-04-28T23:29:24.310Z,8.20
2019-04-28T23:31:53.137Z,8.97
2019-04-28T23:34:22.372Z,7.30
2019-04-28T23:36:51.140Z,8.90
2019-04-28T23:39:20.011Z,7.80
2019-04-28T23:41:55.763Z,8.77
2019-04-28T23:44:24.669Z,10.70
2019-04-28T23:46:59.913Z,10.17
2019-04-28T23:49:29.502Z,10.13
2019-04-28T23:52:06.458Z,11.97
2019-04-28T23:54:36.869Z,10.80
2019-04-28T23:57:07.363Z,12.37
2019-04-28T23:59:36.431Z,11.80
